sensor_id;sensor_type;location;lat;lon;timestamp;pressure;altitude;pressure_sealevel;temperature;humidity
5455;BME280;2750;49.050;9.250;2023-04-01T00:04:17;97378.72;;;11.59;88.46
5455;BME280;2750;49.050;9.250;2023-04-01T00:09:18;97384.59;;;11.50;89.32
5455;BME280;2750;49.050;9.250;2023-04-01T00:14:20;97378.06;;;11.68;88.23
5455;BME280;2750;49.050;9.250;2023-04-01T00:19:23;97384.53;;;11.39;88.84
5455;BME280;2750;49.050;9.250;2023-04-01T00:24:25;97373.53;;;11.59;88.16
5455;BME280;2750;49.050;9.250;2023-04-01T00:29:26;97374.97;;;11.63;88.64
5455;BME280;2750;49.050;9.250;2023-04-01T00:34:32;97387.19;;;11.50;88.08
5455;BME280;2750;49.050;9.250;2023-04-01T00:39:34;97390.63;;;11.74;86.88
5455;BME280;2750;49.050;9.250;2023-04-01T00:44:37;97397.72;;;11.48;86.43
5455;BME280;2750;49.050;9.250;2023-04-01T00:49:42;97396.97;;;11.46;86.58
5455;BME280;2750;49.050;9.250;2023-04-01T00:54:47;97388.34;;;11.46;87.30
5455;BME280;2750;49.050;9.250;2023-04-01T00:59:52;97378.66;;;11.37;86.90
5455;BME280;2750;49.050;9.250;2023-04-01T01:04:56;97364.16;;;11.45;85.90
5455;BME280;2750;49.050;9.250;2023-04-01T01:10:02;97383.16;;;11.46;85.67
5455;BME280;2750;49.050;9.250;2023-04-01T01:15:12;97386.09;;;11.41;85.58
5455;BME280;2750;49.050;9.250;2023-04-01T01:20:51;97388.47;;;11.68;84.33
5455;BME280;2750;49.050;9.250;2023-04-01T01:26:09;97380.56;;;11.46;84.56
5455;BME280;2750;49.050;9.250;2023-04-01T01:31:20;97381.44;;;11.58;83.53
5455;BME280;2750;49.050;9.250;2023-04-01T01:36:27;97381.16;;;11.73;83.73
5455;BME280;2750;49.050;9.250;2023-04-01T01:41:30;97383.19;;;11.81;82.97
5455;BME280;2750;49.050;9.250;2023-04-01T01:46:33;97369.13;;;11.72;83.68
5455;BME280;2750;49.050;9.250;2023-04-01T01:51:36;97371.28;;;11.78;82.60
5455;BME280;2750;49.050;9.250;2023-04-01T01:56:41;97366.72;;;11.69;82.39
5455;BME280;2750;49.050;9.250;2023-04-01T02:01:48;97366.59;;;11.71;82.68
5455;BME280;2750;49.050;9.250;2023-04-01T02:06:58;97361.16;;;11.97;81.37
5455;BME280;2750;49.050;9.250;2023-04-01T02:12:03;97353.63;;;11.71;81.87
5455;BME280;2750;49.050;9.250;2023-04-01T02:17:07;97351.22;;;11.80;81.76
5455;BME280;2750;49.050;9.250;2023-04-01T02:22:14;97354.97;;;11.76;81.38
5455;BME280;2750;49.050;9.250;2023-04-01T02:27:18;97356.22;;;11.71;80.60
5455;BME280;2750;49.050;9.250;2023-04-01T02:32:21;97364.81;;;11.95;80.15
5455;BME280;2750;49.050;9.250;2023-04-01T02:37:24;97364.09;;;11.69;79.97
5455;BME280;2750;49.050;9.250;2023-04-01T02:42:25;97370.34;;;11.32;81.69
5455;BME280;2750;49.050;9.250;2023-04-01T02:47:27;97366.50;;;11.14;84.75
5455;BME280;2750;49.050;9.250;2023-04-01T02:52:30;97369.13;;;11.25;83.92
5455;BME280;2750;49.050;9.250;2023-04-01T02:57:32;97365.59;;;11.49;82.55
5455;BME280;2750;49.050;9.250;2023-04-01T03:02:33;97355.66;;;11.43;82.37
5455;BME280;2750;49.050;9.250;2023-04-01T03:07:37;97368.81;;;11.53;82.23
5455;BME280;2750;49.050;9.250;2023-04-01T03:12:39;97359.78;;;11.46;82.03
5455;BME280;2750;49.050;9.250;2023-04-01T03:17:41;97360.19;;;11.29;81.70
5455;BME280;2750;49.050;9.250;2023-04-01T03:22:44;97365.16;;;11.32;82.07
5455;BME280;2750;49.050;9.250;2023-04-01T03:27:46;97367.06;;;11.30;82.11
5455;BME280;2750;49.050;9.250;2023-04-01T03:32:48;97365.94;;;11.45;81.73
5455;BME280;2750;49.050;9.250;2023-04-01T03:37:52;97363.13;;;11.24;81.66
5455;BME280;2750;49.050;9.250;2023-04-01T03:42:53;97378.09;;;11.21;81.41
5455;BME280;2750;49.050;9.250;2023-04-01T03:47:56;97374.09;;;11.28;82.07
5455;BME280;2750;49.050;9.250;2023-04-01T03:52:59;97377.44;;;11.30;81.70
5455;BME280;2750;49.050;9.250;2023-04-01T03:58:00;97375.44;;;11.33;81.71
5455;BME280;2750;49.050;9.250;2023-04-01T04:03:03;97369.75;;;11.76;80.37
5455;BME280;2750;49.050;9.250;2023-04-01T04:08:06;97373.88;;;11.78;80.25
5455;BME280;2750;49.050;9.250;2023-04-01T04:13:07;97361.97;;;11.87;80.28
5455;BME280;2750;49.050;9.250;2023-04-01T04:18:09;97375.09;;;12.08;80.23
5455;BME280;2750;49.050;9.250;2023-04-01T04:23:11;97368.56;;;11.80;80.88
5455;BME280;2750;49.050;9.250;2023-04-01T04:28:13;97367.53;;;11.93;81.29
5455;BME280;2750;49.050;9.250;2023-04-01T04:33:14;97366.03;;;11.43;83.04
5455;BME280;2750;49.050;9.250;2023-04-01T04:38:17;97372.66;;;11.71;83.08
5455;BME280;2750;49.050;9.250;2023-04-01T04:43:19;97370.78;;;11.73;83.22
5455;BME280;2750;49.050;9.250;2023-04-01T04:48:21;97377.06;;;11.58;83.46
5455;BME280;2750;49.050;9.250;2023-04-01T04:53:24;97373.44;;;11.37;83.59
5455;BME280;2750;49.050;9.250;2023-04-01T04:58:26;97360.78;;;11.80;83.13
5455;BME280;2750;49.050;9.250;2023-04-01T05:03:27;97364.66;;;11.85;82.57
5455;BME280;2750;49.050;9.250;2023-04-01T05:08:30;97365.19;;;11.67;83.42
5455;BME280;2750;49.050;9.250;2023-04-01T05:13:32;97371.81;;;12.06;82.18
5455;BME280;2750;49.050;9.250;2023-04-01T05:18:34;97356.78;;;11.87;82.88
5455;BME280;2750;49.050;9.250;2023-04-01T05:23:37;97355.47;;;11.92;83.39
5455;BME280;2750;49.050;9.250;2023-04-01T05:28:39;97352.28;;;11.89;82.43
5455;BME280;2750;49.050;9.250;2023-04-01T05:33:41;97350.72;;;11.75;83.05
5455;BME280;2750;49.050;9.250;2023-04-01T05:38:44;97339.59;;;11.73;82.66
5455;BME280;2750;49.050;9.250;2023-04-01T05:43:47;97344.16;;;12.05;82.82
5455;BME280;2750;49.050;9.250;2023-04-01T05:48:49;97338.25;;;12.14;82.11
5455;BME280;2750;49.050;9.250;2023-04-01T05:53:52;97343.22;;;12.17;81.45
5455;BME280;2750;49.050;9.250;2023-04-01T05:58:54;97343.72;;;12.22;81.47
5455;BME280;2750;49.050;9.250;2023-04-01T06:03:56;97348.50;;;11.93;82.21
5455;BME280;2750;49.050;9.250;2023-04-01T06:09:07;97342.38;;;12.16;82.28
5455;BME280;2750;49.050;9.250;2023-04-01T06:14:21;97328.56;;;12.27;81.53
5455;BME280;2750;49.050;9.250;2023-04-01T06:19:31;97343.09;;;12.07;82.48
5455;BME280;2750;49.050;9.250;2023-04-01T06:24:51;97334.66;;;11.92;83.02
5455;BME280;2750;49.050;9.250;2023-04-01T06:30:16;97335.66;;;12.25;83.11
5455;BME280;2750;49.050;9.250;2023-04-01T06:35:41;97345.81;;;12.06;83.95
5455;BME280;2750;49.050;9.250;2023-04-01T06:41:06;97341.78;;;11.90;84.51
5455;BME280;2750;49.050;9.250;2023-04-01T06:46:19;97336.88;;;11.75;85.44
5455;BME280;2750;49.050;9.250;2023-04-01T06:51:29;97342.47;;;12.04;84.20
5455;BME280;2750;49.050;9.250;2023-04-01T06:56:39;97336.34;;;11.93;84.83
5455;BME280;2750;49.050;9.250;2023-04-01T07:01:46;97352.19;;;12.13;84.98
5455;BME280;2750;49.050;9.250;2023-04-01T07:06:52;97344.19;;;12.38;83.64
5455;BME280;2750;49.050;9.250;2023-04-01T07:12:00;97345.75;;;11.72;84.41
5455;BME280;2750;49.050;9.250;2023-04-01T07:17:05;97345.47;;;12.10;84.37
5455;BME280;2750;49.050;9.250;2023-04-01T07:22:16;97341.19;;;11.87;83.19
5455;BME280;2750;49.050;9.250;2023-04-01T07:27:23;97349.16;;;12.41;82.97
5455;BME280;2750;49.050;9.250;2023-04-01T07:32:32;97344.88;;;12.29;81.50
5455;BME280;2750;49.050;9.250;2023-04-01T07:37:46;97357.75;;;12.30;82.84
5455;BME280;2750;49.050;9.250;2023-04-01T07:43:07;97366.28;;;12.66;81.61
5455;BME280;2750;49.050;9.250;2023-04-01T07:48:20;97355.16;;;12.75;81.12
5455;BME280;2750;49.050;9.250;2023-04-01T07:53:29;97360.97;;;12.56;80.61
5455;BME280;2750;49.050;9.250;2023-04-01T07:58:43;97367.81;;;12.79;80.13
5455;BME280;2750;49.050;9.250;2023-04-01T08:04:14;97355.41;;;12.27;81.40
5455;BME280;2750;49.050;9.250;2023-04-01T08:09:24;97354.56;;;12.27;81.81
5455;BME280;2750;49.050;9.250;2023-04-01T08:14:35;97370.91;;;12.40;81.62
5455;BME280;2750;49.050;9.250;2023-04-01T08:19:48;97373.97;;;12.45;81.67
5455;BME280;2750;49.050;9.250;2023-04-01T08:24:54;97384.72;;;12.85;82.87
5455;BME280;2750;49.050;9.250;2023-04-01T08:30:03;97392.38;;;12.09;85.59
5455;BME280;2750;49.050;9.250;2023-04-01T08:35:09;97387.34;;;11.83;87.82
5455;BME280;2750;49.050;9.250;2023-04-01T08:40:29;97392.09;;;11.89;89.67
5455;BME280;2750;49.050;9.250;2023-04-01T08:45:53;97366.69;;;11.58;90.27
5455;BME280;2750;49.050;9.250;2023-04-01T08:56:41;97381.47;;;12.04;89.93
5455;BME280;2750;49.050;9.250;2023-04-01T09:02:11;97384.47;;;12.10;90.38
5455;BME280;2750;49.050;9.250;2023-04-01T09:07:33;97377.78;;;11.84;91.12
5455;BME280;2750;49.050;9.250;2023-04-01T09:12:54;97372.28;;;12.00;91.81
5455;BME280;2750;49.050;9.250;2023-04-01T09:23:59;97374.22;;;12.64;89.62
5455;BME280;2750;49.050;9.250;2023-04-01T09:29:13;97385.91;;;12.59;88.37
5455;BME280;2750;49.050;9.250;2023-04-01T09:34:45;97381.41;;;12.27;90.22
5455;BME280;2750;49.050;9.250;2023-04-01T09:45:30;97389.06;;;11.95;90.99
5455;BME280;2750;49.050;9.250;2023-04-01T09:50:42;97401.38;;;12.27;90.90
5455;BME280;2750;49.050;9.250;2023-04-01T09:56:07;97391.00;;;12.49;88.67
5455;BME280;2750;49.050;9.250;2023-04-01T10:01:35;97390.03;;;12.50;86.94
5455;BME280;2750;49.050;9.250;2023-04-01T10:07:35;97399.75;;;12.26;86.59
5455;BME280;2750;49.050;9.250;2023-04-01T10:19:12;97398.78;;;12.27;85.45
5455;BME280;2750;49.050;9.250;2023-04-01T10:24:40;97395.25;;;12.39;85.35
5455;BME280;2750;49.050;9.250;2023-04-01T10:30:04;97398.47;;;11.96;86.58
5455;BME280;2750;49.050;9.250;2023-04-01T10:41:10;97405.09;;;11.89;85.96
5455;BME280;2750;49.050;9.250;2023-04-01T10:46:39;97387.88;;;12.00;85.90
5455;BME280;2750;49.050;9.250;2023-04-01T10:57:55;97400.22;;;11.85;85.24
5455;BME280;2750;49.050;9.250;2023-04-01T11:03:51;97403.38;;;12.23;86.03
5455;BME280;2750;49.050;9.250;2023-04-01T11:15:16;97401.38;;;11.81;86.88
5455;BME280;2750;49.050;9.250;2023-04-01T11:26:25;97415.94;;;12.18;86.85
5455;BME280;2750;49.050;9.250;2023-04-01T11:31:42;97411.09;;;11.79;89.57
5455;BME280;2750;49.050;9.250;2023-04-01T11:36:54;97421.19;;;11.94;87.67
5455;BME280;2750;49.050;9.250;2023-04-01T11:42:11;97431.56;;;12.52;85.99
5455;BME280;2750;49.050;9.250;2023-04-01T11:47:29;97419.38;;;12.74;85.72
5455;BME280;2750;49.050;9.250;2023-04-01T11:52:52;97421.41;;;12.71;84.91
5455;BME280;2750;49.050;9.250;2023-04-01T11:58:18;97409.22;;;12.60;83.51
5455;BME280;2750;49.050;9.250;2023-04-01T12:04:15;97431.22;;;12.45;83.74
5455;BME280;2750;49.050;9.250;2023-04-01T12:09:30;97415.56;;;12.23;83.15
5455;BME280;2750;49.050;9.250;2023-04-01T12:14:39;97443.72;;;12.40;83.03
5455;BME280;2750;49.050;9.250;2023-04-01T12:19:51;97436.88;;;12.61;83.30
5455;BME280;2750;49.050;9.250;2023-04-01T12:25:00;97456.47;;;12.32;82.09
5455;BME280;2750;49.050;9.250;2023-04-01T12:30:24;97446.63;;;12.13;83.36
5455;BME280;2750;49.050;9.250;2023-04-01T12:35:39;97459.13;;;12.54;83.63
5455;BME280;2750;49.050;9.250;2023-04-01T12:41:06;97448.41;;;12.13;84.83
5455;BME280;2750;49.050;9.250;2023-04-01T12:46:15;97453.66;;;12.57;85.05
5455;BME280;2750;49.050;9.250;2023-04-01T12:51:44;97462.59;;;12.20;86.80
5455;BME280;2750;49.050;9.250;2023-04-01T12:56:53;97465.50;;;12.61;85.57
5455;BME280;2750;49.050;9.250;2023-04-01T13:02:13;97448.94;;;11.94;88.22
5455;BME280;2750;49.050;9.250;2023-04-01T13:13:07;97451.03;;;12.35;87.19
5455;BME280;2750;49.050;9.250;2023-04-01T13:18:21;97484.09;;;12.68;86.49
5455;BME280;2750;49.050;9.250;2023-04-01T13:23:39;97479.31;;;12.39;85.99
5455;BME280;2750;49.050;9.250;2023-04-01T13:28:51;97473.91;;;12.54;85.84
5455;BME280;2750;49.050;9.250;2023-04-01T13:34:03;97485.78;;;11.88;87.49
5455;BME280;2750;49.050;9.250;2023-04-01T13:39:18;97498.72;;;12.12;87.79
5455;BME280;2750;49.050;9.250;2023-04-01T13:44:34;97467.41;;;11.78;88.19
5455;BME280;2750;49.050;9.250;2023-04-01T13:50:16;97508.63;;;12.87;85.14
5455;BME280;2750;49.050;9.250;2023-04-01T13:55:44;97503.28;;;12.89;84.33
5455;BME280;2750;49.050;9.250;2023-04-01T14:00:55;97517.09;;;12.67;84.73
5455;BME280;2750;49.050;9.250;2023-04-01T14:06:17;97523.03;;;12.80;84.14
5455;BME280;2750;49.050;9.250;2023-04-01T14:11:25;97518.41;;;12.27;85.58
5455;BME280;2750;49.050;9.250;2023-04-01T14:16:55;97503.81;;;11.78;87.62
5455;BME280;2750;49.050;9.250;2023-04-01T14:22:05;97521.38;;;11.98;87.27
5455;BME280;2750;49.050;9.250;2023-04-01T14:27:45;97526.91;;;12.18;87.49
5455;BME280;2750;49.050;9.250;2023-04-01T14:32:53;97519.16;;;12.40;83.97
5455;BME280;2750;49.050;9.250;2023-04-01T14:38:25;97534.88;;;12.38;84.35
5455;BME280;2750;49.050;9.250;2023-04-01T14:43:52;97516.34;;;12.43;84.89
5455;BME280;2750;49.050;9.250;2023-04-01T14:49:02;97525.16;;;11.94;84.88
5455;BME280;2750;49.050;9.250;2023-04-01T14:54:08;97525.78;;;12.33;85.23
5455;BME280;2750;49.050;9.250;2023-04-01T14:59:28;97543.72;;;12.25;84.71
5455;BME280;2750;49.050;9.250;2023-04-01T15:04:47;97540.13;;;12.50;84.36
5455;BME280;2750;49.050;9.250;2023-04-01T15:09:57;97546.41;;;12.23;84.56
5455;BME280;2750;49.050;9.250;2023-04-01T15:15:16;97550.41;;;12.51;84.92
5455;BME280;2750;49.050;9.250;2023-04-01T15:20:33;97552.38;;;12.36;85.34
5455;BME280;2750;49.050;9.250;2023-04-01T15:25:57;97546.66;;;12.55;84.81
5455;BME280;2750;49.050;9.250;2023-04-01T15:31:08;97558.63;;;12.69;84.94
5455;BME280;2750;49.050;9.250;2023-04-01T15:36:19;97540.75;;;12.53;83.84
5455;BME280;2750;49.050;9.250;2023-04-01T15:41:36;97570.16;;;12.54;85.02
5455;BME280;2750;49.050;9.250;2023-04-01T15:46:46;97558.00;;;12.65;84.38
5455;BME280;2750;49.050;9.250;2023-04-01T15:51:55;97558.84;;;12.66;84.00
5455;BME280;2750;49.050;9.250;2023-04-01T15:57:13;97565.97;;;12.75;84.05
5455;BME280;2750;49.050;9.250;2023-04-01T16:02:21;97568.53;;;12.53;83.85
5455;BME280;2750;49.050;9.250;2023-04-01T16:07:42;97580.81;;;12.51;84.06
5455;BME280;2750;49.050;9.250;2023-04-01T16:12:53;97581.13;;;12.46;84.35
5455;BME280;2750;49.050;9.250;2023-04-01T16:18:11;97576.66;;;12.48;84.22
5455;BME280;2750;49.050;9.250;2023-04-01T16:23:18;97584.28;;;12.62;83.85
5455;BME280;2750;49.050;9.250;2023-04-01T16:28:27;97595.38;;;12.53;84.27
5455;BME280;2750;49.050;9.250;2023-04-01T16:33:38;97580.75;;;12.74;83.18
5455;BME280;2750;49.050;9.250;2023-04-01T16:38:46;97599.56;;;12.67;83.84
5455;BME280;2750;49.050;9.250;2023-04-01T16:43:51;97601.22;;;12.68;83.36
5455;BME280;2750;49.050;9.250;2023-04-01T16:49:03;97582.78;;;12.36;83.90
5455;BME280;2750;49.050;9.250;2023-04-01T16:54:25;97598.56;;;12.45;84.03
5455;BME280;2750;49.050;9.250;2023-04-01T16:59:34;97597.22;;;12.40;84.42
5455;BME280;2750;49.050;9.250;2023-04-01T17:04:43;97602.97;;;12.32;84.03
5455;BME280;2750;49.050;9.250;2023-04-01T17:09:54;97610.72;;;12.45;84.73
5455;BME280;2750;49.050;9.250;2023-04-01T17:15:04;97609.00;;;12.33;84.47
5455;BME280;2750;49.050;9.250;2023-04-01T17:20:24;97613.97;;;12.36;84.78
5455;BME280;2750;49.050;9.250;2023-04-01T17:25:48;97611.88;;;12.41;84.19
5455;BME280;2750;49.050;9.250;2023-04-01T17:30:59;97633.00;;;12.60;83.98
5455;BME280;2750;49.050;9.250;2023-04-01T17:36:09;97641.38;;;12.53;84.04
5455;BME280;2750;49.050;9.250;2023-04-01T17:41:25;97641.94;;;12.45;84.48
5455;BME280;2750;49.050;9.250;2023-04-01T17:46:34;97651.13;;;12.38;84.26
5455;BME280;2750;49.050;9.250;2023-04-01T17:51:46;97658.25;;;12.23;84.78
5455;BME280;2750;49.050;9.250;2023-04-01T17:57:02;97660.09;;;11.97;85.65
5455;BME280;2750;49.050;9.250;2023-04-01T18:02:19;97643.63;;;12.10;85.06
5455;BME280;2750;49.050;9.250;2023-04-01T18:07:36;97676.25;;;12.26;84.97
5455;BME280;2750;49.050;9.250;2023-04-01T18:13:00;97690.59;;;11.95;85.28
5455;BME280;2750;49.050;9.250;2023-04-01T18:18:16;97700.03;;;11.96;85.17
5455;BME280;2750;49.050;9.250;2023-04-01T18:23:27;97704.91;;;11.88;85.80
5455;BME280;2750;49.050;9.250;2023-04-01T18:28:36;97708.56;;;11.86;85.26
5455;BME280;2750;49.050;9.250;2023-04-01T18:33:50;97710.13;;;11.88;85.24
5455;BME280;2750;49.050;9.250;2023-04-01T18:39:02;97704.50;;;12.31;83.64
5455;BME280;2750;49.050;9.250;2023-04-01T18:44:16;97711.47;;;11.94;84.47
5455;BME280;2750;49.050;9.250;2023-04-01T18:49:23;97726.09;;;12.20;84.05
5455;BME280;2750;49.050;9.250;2023-04-01T18:54:32;97745.84;;;12.23;83.99
5455;BME280;2750;49.050;9.250;2023-04-01T18:59:39;97737.00;;;12.25;83.54
5455;BME280;2750;49.050;9.250;2023-04-01T19:04:45;97738.84;;;12.36;83.56
5455;BME280;2750;49.050;9.250;2023-04-01T19:09:52;97751.00;;;12.48;82.99
5455;BME280;2750;49.050;9.250;2023-04-01T19:15:11;97755.53;;;12.57;83.06
5455;BME280;2750;49.050;9.250;2023-04-01T19:20:20;97746.81;;;12.09;84.42
5455;BME280;2750;49.050;9.250;2023-04-01T19:25:32;97750.97;;;12.12;84.82
5455;BME280;2750;49.050;9.250;2023-04-01T19:30:44;97754.44;;;11.87;84.98
5455;BME280;2750;49.050;9.250;2023-04-01T19:35:54;97757.66;;;11.90;85.41
5455;BME280;2750;49.050;9.250;2023-04-01T19:41:16;97756.59;;;11.68;86.37
5455;BME280;2750;49.050;9.250;2023-04-01T19:46:26;97748.41;;;11.86;85.97
5455;BME280;2750;49.050;9.250;2023-04-01T19:51:31;97766.28;;;11.78;86.64
5455;BME280;2750;49.050;9.250;2023-04-01T19:56:42;97766.59;;;11.99;85.95
5455;BME280;2750;49.050;9.250;2023-04-01T20:01:50;97779.50;;;11.75;86.28
5455;BME280;2750;49.050;9.250;2023-04-01T20:06:57;97784.63;;;11.63;86.95
5455;BME280;2750;49.050;9.250;2023-04-01T20:12:08;97803.13;;;11.58;87.66
5455;BME280;2750;49.050;9.250;2023-04-01T20:17:19;97803.59;;;11.77;87.03
5455;BME280;2750;49.050;9.250;2023-04-01T20:22:33;97799.75;;;12.21;86.00
5455;BME280;2750;49.050;9.250;2023-04-01T20:27:40;97814.22;;;12.00;85.76
5455;BME280;2750;49.050;9.250;2023-04-01T20:32:57;97814.63;;;12.19;85.73
5455;BME280;2750;49.050;9.250;2023-04-01T20:38:16;97824.50;;;12.14;85.54
5455;BME280;2750;49.050;9.250;2023-04-01T20:43:33;97828.31;;;12.46;84.33
5455;BME280;2750;49.050;9.250;2023-04-01T20:49:07;97826.78;;;12.31;84.49
5455;BME280;2750;49.050;9.250;2023-04-01T20:54:22;97838.69;;;11.70;86.37
5455;BME280;2750;49.050;9.250;2023-04-01T20:59:44;97844.88;;;12.20;85.38
5455;BME280;2750;49.050;9.250;2023-04-01T21:05:09;97841.47;;;12.07;84.85
5455;BME280;2750;49.050;9.250;2023-04-01T21:10:29;97856.59;;;12.51;84.72
5455;BME280;2750;49.050;9.250;2023-04-01T21:15:50;97854.66;;;11.91;85.62
5455;BME280;2750;49.050;9.250;2023-04-01T21:21:21;97849.88;;;11.97;85.76
5455;BME280;2750;49.050;9.250;2023-04-01T21:26:41;97866.09;;;12.01;85.88
5455;BME280;2750;49.050;9.250;2023-04-01T21:31:56;97874.31;;;12.08;85.70
5455;BME280;2750;49.050;9.250;2023-04-01T21:37:14;97872.56;;;11.95;86.53
5455;BME280;2750;49.050;9.250;2023-04-01T21:42:28;97876.38;;;11.90;86.51
5455;BME280;2750;49.050;9.250;2023-04-01T21:48:11;97880.53;;;11.92;86.26
5455;BME280;2750;49.050;9.250;2023-04-01T21:53:36;97884.94;;;12.05;86.23
5455;BME280;2750;49.050;9.250;2023-04-01T21:59:09;97886.47;;;11.94;86.26
5455;BME280;2750;49.050;9.250;2023-04-01T22:04:34;97885.75;;;11.92;85.98
5455;BME280;2750;49.050;9.250;2023-04-01T22:09:39;97884.53;;;12.11;86.08
5455;BME280;2750;49.050;9.250;2023-04-01T22:14:48;97888.34;;;11.80;87.07
5455;BME280;2750;49.050;9.250;2023-04-01T22:19:57;97884.94;;;12.05;86.00
5455;BME280;2750;49.050;9.250;2023-04-01T22:25:15;97879.53;;;12.33;84.97
5455;BME280;2750;49.050;9.250;2023-04-01T22:30:20;97899.00;;;12.15;85.65
5455;BME280;2750;49.050;9.250;2023-04-01T22:35:32;97906.16;;;12.24;85.97
5455;BME280;2750;49.050;9.250;2023-04-01T22:40:42;97905.34;;;12.11;85.95
5455;BME280;2750;49.050;9.250;2023-04-01T22:46:03;97897.84;;;12.31;84.86
5455;BME280;2750;49.050;9.250;2023-04-01T22:51:16;97914.03;;;11.97;85.55
5455;BME280;2750;49.050;9.250;2023-04-01T22:56:23;97916.75;;;11.95;85.98
5455;BME280;2750;49.050;9.250;2023-04-01T23:01:32;97913.75;;;12.02;85.49
5455;BME280;2750;49.050;9.250;2023-04-01T23:06:42;97923.81;;;11.93;85.98
5455;BME280;2750;49.050;9.250;2023-04-01T23:11:49;97926.34;;;12.20;84.96
5455;BME280;2750;49.050;9.250;2023-04-01T23:16:57;97925.38;;;11.69;86.68
5455;BME280;2750;49.050;9.250;2023-04-01T23:22:11;97937.84;;;11.64;87.17
5455;BME280;2750;49.050;9.250;2023-04-01T23:27:21;97935.34;;;11.63;87.47
5455;BME280;2750;49.050;9.250;2023-04-01T23:32:25;97946.84;;;11.32;88.61
5455;BME280;2750;49.050;9.250;2023-04-01T23:37:29;97950.22;;;11.46;88.01
5455;BME280;2750;49.050;9.250;2023-04-01T23:42:32;97950.31;;;11.18;90.32
5455;BME280;2750;49.050;9.250;2023-04-01T23:47:38;97953.44;;;11.23;91.65
5455;BME280;2750;49.050;9.250;2023-04-01T23:52:43;97969.50;;;11.30;90.79
5455;BME280;2750;49.050;9.250;2023-04-01T23:58:01;97972.94;;;11.57;89.83
